Time;durP1;ratioP1;P1;durP2;ratioP2;P2;SDS_P1;SDS_P2;PMS_P1;PMS_P2;Temp;Humidity;BMP_temperature;BMP_pressure;BME280_temperature;BME280_humidity;BME280_pressure;Samples;Min_cycle;Max_cycle;Signal;HPM_P1;HPM_P2
2022/01/02 17:51:30;;;;;;;532.15;319.77;;;;;;;2.31;100.00;101776.38;5091107;27;20352;-83
2022/01/02 17:53:57;;;;;;;476.23;282.55;;;;;;;2.11;100.00;101767.50;5070085;28;20558;-78
2022/01/02 17:56:24;;;;;;;359.35;201.98;;;;;;;2.04;100.00;101763.75;5070945;28;20044;-80
2022/01/02 17:58:52;;;;;;;551.00;354.20;;;;;;;2.27;100.00;101765.31;5068915;28;20056;-79
2022/01/02 18:01:22;;;;;;;363.48;200.82;;;;;;;2.13;100.00;101760.38;5065958;28;20037;-80
2022/01/02 18:03:49;;;;;;;353.45;191.38;;;;;;;2.00;100.00;101757.91;5065624;28;20128;-79
2022/01/02 18:06:16;;;;;;;342.60;183.23;;;;;;;2.18;100.00;101750.34;5068642;28;20619;-79
2022/01/02 18:08:45;;;;;;;367.52;202.20;;;;;;;1.94;100.00;101753.19;5066533;28;20056;-80
2022/01/02 18:11:11;;;;;;;382.95;211.68;;;;;;;1.92;100.00;101754.25;5064938;28;20041;-78
2022/01/02 18:13:38;;;;;;;512.80;290.23;;;;;;;1.91;100.00;101745.56;5067839;28;20048;-80
2022/01/02 18:16:05;;;;;;;491.52;261.95;;;;;;;1.97;100.00;101744.25;5067619;28;20493;-77
2022/01/02 18:18:32;;;;;;;464.63;253.02;;;;;;;2.10;100.00;101736.22;5069465;28;20564;-80
2022/01/02 18:20:59;;;;;;;463.83;256.25;;;;;;;1.83;100.00;101737.47;5067398;28;20044;-79
2022/01/02 18:23:26;;;;;;;437.00;233.60;;;;;;;1.68;100.00;101742.16;5069413;28;20542;-77
2022/01/02 18:25:54;;;;;;;397.70;198.75;;;;;;;1.86;100.00;101742.47;5068230;28;20450;-79
2022/01/02 18:28:21;;;;;;;394.48;202.98;;;;;;;1.77;100.00;101736.19;5067141;28;20052;-80
2022/01/02 18:30:48;;;;;;;394.83;197.50;;;;;;;1.83;100.00;101722.59;5066980;28;20049;-78
2022/01/02 18:33:15;;;;;;;384.77;191.77;;;;;;;1.41;100.00;101734.72;5069240;28;20122;-81
2022/01/02 18:35:41;;;;;;;353.60;180.68;;;;;;;1.69;100.00;101732.53;5067241;28;20554;-77
2022/01/02 18:38:10;;;;;;;359.55;174.85;;;;;;;1.74;100.00;101728.59;5065656;28;20102;-80
2022/01/02 18:40:42;;;;;;;442.95;200.45;;;;;;;1.37;100.00;101733.31;5068205;28;20139;-79
2022/01/02 18:43:11;;;;;;;413.80;196.20;;;;;;;1.63;100.00;101730.38;5065856;28;20045;-80
2022/01/02 18:45:38;;;;;;;441.60;216.23;;;;;;;1.64;100.00;101725.03;5065653;28;20118;-81
2022/01/02 18:48:05;;;;;;;441.85;220.45;;;;;;;1.78;100.00;101716.06;5065626;28;20876;-79
2022/01/02 18:50:33;;;;;;;449.13;216.98;;;;;;;1.74;100.00;101707.63;5066827;28;20527;-78
2022/01/02 18:53:01;;;;;;;622.50;267.40;;;;;;;1.87;100.00;101715.31;5067505;28;20040;-79
2022/01/02 18:55:28;;;;;;;512.65;237.15;;;;;;;1.82;100.00;101713.09;5030516;28;20438;-79
2022/01/02 18:57:54;;;;;;;476.83;184.98;;;;;;;1.66;100.00;101715.25;5026387;28;20049;-78
2022/01/02 19:00:23;;;;;;;446.00;188.25;;;;;;;1.73;100.00;101708.59;5028775;28;20486;-80
2022/01/02 19:02:50;;;;;;;499.13;201.15;;;;;;;1.77;100.00;101704.75;5015386;28;20046;-79
2022/01/02 19:05:17;;;;;;;542.25;194.77;;;;;;;1.75;100.00;101703.22;5014744;28;20078;-79
2022/01/02 19:07:45;;;;;;;485.30;186.73;;;;;;;1.74;100.00;101702.38;5011618;28;20071;-78
2022/01/02 19:10:15;;;;;;;515.42;201.25;;;;;;;1.67;100.00;101697.78;5014825;28;20540;-80
2022/01/02 19:12:44;;;;;;;665.17;249.07;;;;;;;1.66;100.00;101693.47;5014884;28;20037;-81
2022/01/02 19:15:12;;;;;;;843.72;299.35;;;;;;;1.59;100.00;101690.53;5015554;28;20100;-80
2022/01/02 19:17:40;;;;;;;816.53;329.73;;;;;;;1.53;100.00;101694.47;5015768;28;20050;-79
2022/01/02 19:20:09;;;;;;;698.63;300.88;;;;;;;1.56;100.00;101683.75;5013442;28;20104;-81
2022/01/02 19:22:37;;;;;;;1380.18;526.28;;;;;;;1.63;100.00;101689.31;5015290;28;20061;-80
2022/01/02 19:25:06;;;;;;;701.45;300.63;;;;;;;1.53;100.00;101691.84;5015131;28;20108;-80
2022/01/02 19:27:33;;;;;;;692.28;277.08;;;;;;;1.40;100.00;101685.94;5015006;28;20049;-80
2022/01/02 19:30:02;;;;;;;859.78;288.67;;;;;;;1.35;100.00;101681.06;5014853;28;20054;-79
2022/01/02 19:32:28;;;;;;;713.28;284.52;;;;;;;1.35;100.00;101675.81;5015144;28;20064;-79
2022/01/02 19:34:58;;;;;;;766.20;309.45;;;;;;;1.37;100.00;101673.09;5005003;28;20052;-80
2022/01/02 19:37:25;;;;;;;940.05;368.83;;;;;;;1.27;100.00;101667.78;5014075;28;20430;-80
2022/01/02 19:39:52;;;;;;;1222.28;416.50;;;;;;;1.20;100.00;101660.50;5013522;28;20069;-80
2022/01/02 19:42:20;;;;;;;1578.32;478.35;;;;;;;0.93;100.00;101655.66;5013640;28;20502;-79
2022/01/02 19:44:47;;;;;;;941.33;371.85;;;;;;;1.14;100.00;101659.22;5013589;28;20042;-81
2022/01/02 19:47:14;;;;;;;717.92;291.23;;;;;;;1.11;100.00;101660.28;5014859;28;20124;-79
2022/01/02 19:49:43;;;;;;;839.78;291.00;;;;;;;1.16;100.00;101659.94;5010841;28;20100;-81
2022/01/02 19:52:13;;;;;;;952.58;333.58;;;;;;;1.13;100.00;101650.53;5013678;28;20126;-79
2022/01/02 19:54:40;;;;;;;821.33;363.60;;;;;;;1.11;100.00;101649.81;5011984;28;20042;-79
2022/01/02 19:57:07;;;;;;;1042.43;386.88;;;;;;;1.11;100.00;101656.84;5013369;28;20046;-79
2022/01/02 19:59:43;;;;;;;1063.32;408.35;;;;;;;1.13;100.00;101652.31;5013523;28;20050;-79
2022/01/02 20:02:11;;;;;;;947.90;381.85;;;;;;;1.02;100.00;101653.16;5012594;28;20073;-78
2022/01/02 20:04:43;;;;;;;926.38;346.20;;;;;;;1.08;100.00;101649.22;5013163;28;20058;-79
2022/01/02 20:07:10;;;;;;;800.40;318.95;;;;;;;1.06;100.00;101646.75;5014938;28;20049;-78
2022/01/02 20:09:39;;;;;;;704.67;298.88;;;;;;;1.11;100.00;101644.59;5013327;28;20054;-79
2022/01/02 20:12:09;;;;;;;877.75;311.50;;;;;;;0.73;100.00;101657.22;5012472;28;20112;-79
2022/01/02 20:14:37;;;;;;;868.97;312.35;;;;;;;0.84;100.00;101654.59;5012735;28;20049;-78
2022/01/02 20:17:04;;;;;;;910.13;333.30;;;;;;;0.85;100.00;101648.44;5012735;28;20123;-80
2022/01/02 20:19:31;;;;;;;757.60;300.95;;;;;;;0.90;100.00;101649.72;5013118;28;20041;-77
2022/01/02 20:21:58;;;;;;;759.92;302.77;;;;;;;0.83;100.00;101642.47;5012586;28;20120;-78
2022/01/02 20:24:25;;;;;;;904.45;335.15;;;;;;;0.98;100.00;101641.28;5012345;28;20051;-79
2022/01/02 20:26:53;;;;;;;1126.32;384.60;;;;;;;1.02;100.00;101634.84;4963968;28;20144;-79
2022/01/02 20:29:20;;;;;;;1154.25;398.83;;;;;;;1.03;100.00;101626.06;5032946;28;20057;-79
2022/01/02 20:31:47;;;;;;;902.70;349.27;;;;;;;0.88;100.00;101628.09;5010101;28;20046;-79
2022/01/02 20:34:14;;;;;;;1119.40;373.08;;;;;;;0.72;100.00;101622.38;5012522;28;20054;-79
2022/01/02 20:36:41;;;;;;;1138.60;399.05;;;;;;;0.71;100.00;101619.91;5000282;28;20057;-79
2022/01/02 20:39:11;;;;;;;1068.40;373.83;;;;;;;0.81;100.00;101615.59;5005608;28;20046;-78
2022/01/02 20:41:38;;;;;;;1326.82;396.60;;;;;;;0.57;100.00;101618.34;5003552;28;20046;-80
2022/01/02 20:44:06;;;;;;;1060.10;378.70;;;;;;;0.73;100.00;101611.00;5004575;28;20053;-80
2022/01/02 20:46:33;;;;;;;1055.15;374.70;;;;;;;0.70;100.00;101613.84;5005086;28;20050;-79
2022/01/02 20:49:00;;;;;;;986.83;350.83;;;;;;;0.61;100.00;101614.56;5008048;28;20411;-80
2022/01/02 20:51:28;;;;;;;1060.85;367.50;;;;;;;0.67;100.00;101604.44;5008937;28;20050;-78
2022/01/02 20:53:56;;;;;;;822.92;317.55;;;;;;;0.52;100.00;101599.59;5004934;28;20049;-79
2022/01/02 20:56:23;;;;;;;758.50;299.92;;;;;;;0.55;100.00;101591.50;4978055;28;20049;-79
2022/01/02 20:58:50;;;;;;;1052.95;330.70;;;;;;;0.44;100.00;101585.31;5031122;28;20058;-78
2022/01/02 21:01:18;;;;;;;1006.33;325.15;;;;;;;0.45;100.00;101592.22;5025304;28;20528;-80
2022/01/02 21:03:46;;;;;;;1046.03;348.02;;;;;;;0.52;100.00;101578.69;5028200;28;20436;-80
2022/01/02 21:06:14;;;;;;;912.58;330.58;;;;;;;0.53;100.00;101577.72;5026361;28;20053;-79
2022/01/02 21:08:41;;;;;;;771.45;305.17;;;;;;;0.58;100.00;101581.66;5027465;28;20114;-79
2022/01/02 21:11:08;;;;;;;957.65;333.65;;;;;;;0.62;100.00;101572.59;5026668;28;20116;-79
2022/01/02 21:13:35;;;;;;;1143.00;402.15;;;;;;;0.41;100.00;101574.28;5028881;28;20049;-79
2022/01/02 21:16:02;;;;;;;1807.15;468.58;;;;;;;0.19;100.00;101570.69;5022661;28;20184;-79
2022/01/02 21:18:31;;;;;;;1177.22;417.48;;;;;;;0.35;100.00;101570.34;5026105;28;20050;-79
2022/01/02 21:20:58;;;;;;;1179.68;410.23;;;;;;;0.29;100.00;101570.81;5006460;28;20049;-78
2022/01/02 21:23:25;;;;;;;1214.20;394.15;;;;;;;0.36;100.00;101560.72;4995304;28;20064;-80
2022/01/02 21:25:52;;;;;;;1304.28;406.75;;;;;;;0.42;100.00;101562.84;5028258;28;20130;-80
2022/01/02 21:28:19;;;;;;;1099.00;381.25;;;;;;;0.35;100.00;101556.44;5024967;28;20067;-79
2022/01/02 21:30:46;;;;;;;1092.57;378.77;;;;;;;0.26;100.00;101555.38;5027641;28;20050;-79
2022/01/02 21:33:12;;;;;;;1072.10;348.23;;;;;;;0.09;100.00;101543.63;5030224;28;20046;-81
2022/01/02 21:35:40;;;;;;;1034.45;360.95;;;;;;;0.23;100.00;101545.16;5024744;28;20474;-80
2022/01/02 21:38:08;;;;;;;966.08;342.95;;;;;;;0.22;100.00;101541.72;5000064;28;20061;-81
2022/01/02 21:40:35;;;;;;;1118.65;386.40;;;;;;;0.33;100.00;101534.81;5024710;28;20049;-80
2022/01/02 21:43:02;;;;;;;1131.97;404.65;;;;;;;0.34;100.00;101528.66;5025235;28;20103;-79
2022/01/02 21:45:28;;;;;;;1718.65;449.67;;;;;;;0.15;100.00;101530.09;5025529;28;20412;-77
2022/01/02 21:47:56;;;;;;;1139.15;384.45;;;;;;;0.36;100.00;101524.94;5022344;28;20056;-78
2022/01/02 21:50:24;;;;;;;963.45;344.20;;;;;;;0.18;100.00;101521.16;5026016;28;20587;-80
2022/01/02 21:52:52;;;;;;;1017.65;356.15;;;;;;;0.35;100.00;101519.88;5024722;28;20486;-79
2022/01/02 21:55:19;;;;;;;1053.25;366.35;;;;;;;0.44;100.00;101504.28;5023587;28;20111;-79
2022/01/02 21:57:46;;;;;;;869.38;316.95;;;;;;;0.48;100.00;101499.63;5028089;28;20441;-80
2022/01/02 22:00:16;;;;;;;769.88;300.08;;;;;;;0.36;100.00;101500.59;5026392;28;20049;-79
2022/01/02 22:02:44;;;;;;;698.67;268.42;;;;;;;0.35;100.00;101496.34;5030535;28;20053;-79
2022/01/02 22:05:11;;;;;;;638.42;245.25;;;;;;;0.22;100.00;101491.25;5028751;28;20103;-78
2022/01/02 22:07:39;;;;;;;605.55;234.68;;;;;;;0.42;100.00;101497.50;5026690;28;20049;-79
2022/01/02 22:10:09;;;;;;;670.75;265.38;;;;;;;0.55;100.00;101494.78;5028502;28;20099;-78
2022/01/02 22:12:36;;;;;;;812.05;319.15;;;;;;;0.63;100.00;101487.97;5032158;28;20421;-79
2022/01/02 22:15:05;;;;;;;795.75;300.95;;;;;;;0.54;100.00;101493.94;5030092;28;20046;-81
2022/01/02 22:17:32;;;;;;;1065.28;376.08;;;;;;;0.54;100.00;101491.31;4982968;28;20057;-80
2022/01/02 22:20:00;;;;;;;794.15;301.52;;;;;;;0.59;100.00;101491.78;5024417;28;20057;-79
2022/01/02 22:22:29;;;;;;;830.60;323.05;;;;;;;0.65;100.00;101483.44;5027220;28;20053;-79
2022/01/02 22:24:58;;;;;;;902.85;343.08;;;;;;;0.57;100.00;101485.00;5031048;28;20124;-81
2022/01/02 22:27:32;;;;;;;1138.97;366.98;;;;;;;0.47;100.00;101492.75;5030103;28;20118;-80
2022/01/02 22:30:00;;;;;;;788.72;301.55;;;;;;;0.48;100.00;101491.78;5029674;28;20104;-78
2022/01/02 22:32:28;;;;;;;756.70;273.92;;;;;;;0.63;100.00;101479.28;5032664;28;20049;-80
2022/01/02 22:34:56;;;;;;;561.47;209.13;;;;;;;0.60;100.00;101474.31;5029414;28;20103;-79
2022/01/02 22:37:24;;;;;;;487.63;165.38;;;;;;;0.39;100.00;101475.09;5029011;28;20125;-79
2022/01/02 22:39:51;;;;;;;379.02;130.88;;;;;;;0.44;100.00;101472.91;5034918;28;20041;-79
2022/01/02 22:42:18;;;;;;;400.80;140.15;;;;;;;0.48;100.00;101473.50;5030683;28;20565;-80
2022/01/02 22:44:47;;;;;;;473.70;148.10;;;;;;;0.38;100.00;101475.19;5031190;28;20041;-79
2022/01/02 22:47:17;;;;;;;545.70;176.65;;;;;;;0.39;100.00;101474.22;5032087;28;20473;-78
2022/01/02 22:49:47;;;;;;;482.17;155.60;;;;;;;0.48;100.00;101486.56;5032055;28;20057;-80
2022/01/02 22:52:15;;;;;;;455.15;136.35;;;;;;;0.49;100.00;101471.75;5035179;28;20049;-81
2022/01/02 22:54:43;;;;;;;405.88;118.53;;;;;;;0.52;100.00;101471.50;5033641;28;20057;-78
2022/01/02 22:57:11;;;;;;;391.63;114.25;;;;;;;0.59;100.00;101463.03;5029951;28;20135;-79
2022/01/02 22:59:43;;;;;;;359.10;115.30;;;;;;;0.35;100.00;101465.81;5034825;28;20120;-77
2022/01/02 23:02:12;;;;;;;454.55;117.88;;;;;;;0.28;100.00;101458.59;5031877;28;20481;-79
2022/01/02 23:04:39;;;;;;;304.13;95.97;;;;;;;0.38;100.00;101459.50;5030495;28;20049;-79
2022/01/02 23:07:06;;;;;;;413.45;102.38;;;;;;;0.15;100.00;101459.56;5029047;28;20041;-79
2022/01/02 23:09:33;;;;;;;368.20;99.50;;;;;;;0.22;100.00;101447.66;5032325;28;20429;-80
2022/01/02 23:12:00;;;;;;;296.20;91.88;;;;;;;0.42;100.00;101445.25;5032866;28;20084;-80
2022/01/02 23:14:29;;;;;;;317.65;96.55;;;;;;;0.26;100.00;101440.41;5031268;28;20496;-81
2022/01/02 23:16:59;;;;;;;263.95;91.68;;;;;;;0.36;100.00;101435.28;5034273;28;20125;-79
2022/01/02 23:19:35;;;;;;;252.90;91.30;;;;;;;0.53;100.00;101437.38;5031419;28;20131;-79
2022/01/02 23:22:03;;;;;;;360.33;95.20;;;;;;;0.29;100.00;101432.31;5032915;28;20124;-80
2022/01/02 23:24:30;;;;;;;342.17;107.10;;;;;;;0.25;100.00;101424.88;5032280;28;20049;-79
2022/01/02 23:26:58;;;;;;;276.50;103.10;;;;;;;0.31;100.00;101419.97;5034034;28;20045;-80
2022/01/02 23:29:29;;;;;;;325.58;104.15;;;;;;;0.45;100.00;101422.31;5027615;28;20042;-79
2022/01/02 23:31:56;;;;;;;266.63;91.67;;;;;;;0.42;100.00;101419.97;5033383;28;20425;-80
2022/01/02 23:34:23;;;;;;;342.25;106.97;;;;;;;0.43;100.00;101413.75;5032962;28;20108;-79
2022/01/02 23:36:53;;;;;;;367.25;119.32;;;;;;;0.54;100.00;101415.50;5028949;28;20046;-79
2022/01/02 23:39:20;;;;;;;748.83;223.50;;;;;;;0.43;100.00;101415.56;5034431;28;20137;-79
2022/01/02 23:41:48;;;;;;;1124.20;315.80;;;;;;;0.58;100.00;101410.88;5032680;28;20118;-80
2022/01/02 23:44:15;;;;;;;577.50;160.50;;;;;;;0.61;100.00;101415.84;5034446;28;20057;-79
2022/01/02 23:46:49;;;;;;;528.88;162.45;;;;;;;0.81;100.00;101411.59;5030901;28;20045;-78
2022/01/02 23:49:18;;;;;;;522.33;156.60;;;;;;;0.75;100.00;101425.19;5030754;28;20049;-78
2022/01/02 23:51:47;;;;;;;524.05;161.43;;;;;;;0.78;100.00;101419.72;5030114;28;20041;-80
2022/01/02 23:54:16;;;;;;;609.22;182.32;;;;;;;0.64;100.00;101408.59;5030277;28;20080;-82
2022/01/02 23:56:49;;;;;;;606.33;179.02;;;;;;;0.71;100.00;101411.53;5029652;28;20062;-79
2022/01/02 23:59:23;;;;;;;639.83;179.13;;;;;;;0.66;100.00;101408.44;5030135;28;20045;-79
